Time;durP1;ratioP1;P1;durP2;ratioP2;P2;SDS_P1;SDS_P2;PMS_P1;PMS_P2;Temp;Humidity;BMP_temperature;BMP_pressure;BME280_temperature;BME280_humidity;BME280_pressure;Samples;Min_cycle;Max_cycle;Signal;HPM_P1;HPM_P2
2022/11/16 00:01:17;;;;;;;6.47;5.35;;;;;;;12.16;100.00;99880.44;5023237;28;20105;-56
2022/11/16 00:03:43;;;;;;;6.67;5.13;;;;;;;12.16;100.00;99867.56;5022949;28;20033;-56
2022/11/16 00:06:11;;;;;;;7.55;5.25;;;;;;;12.18;100.00;99870.13;5022962;28;20034;-53
2022/11/16 00:08:41;;;;;;;6.90;5.10;;;;;;;12.18;100.00;99863.25;5023687;28;20752;-53
2022/11/16 00:11:16;;;;;;;6.70;5.22;;;;;;;12.19;100.00;99866.69;5007106;28;20031;-52
2022/11/16 00:13:42;;;;;;;6.25;5.65;;;;;;;12.17;100.00;99869.28;5024316;28;20064;-55
2022/11/16 00:16:14;;;;;;;7.18;5.50;;;;;;;12.17;100.00;99865.84;5022398;28;20444;-57
2022/11/16 00:18:39;;;;;;;6.93;5.40;;;;;;;12.16;100.00;99870.13;5024063;28;20037;-55
2022/11/16 00:21:05;;;;;;;7.63;5.60;;;;;;;12.17;100.00;99878.72;5023665;28;20041;-54
2022/11/16 00:23:31;;;;;;;8.15;5.93;;;;;;;12.16;100.00;99877.84;5023662;28;20040;-56
2022/11/16 00:26:02;;;;;;;7.43;6.18;;;;;;;12.18;100.00;99875.28;5025456;28;20033;-57
2022/11/16 00:28:28;;;;;;;9.00;6.25;;;;;;;12.17;100.00;99871.84;5018996;28;20386;-51
2022/11/16 00:31:01;;;;;;;8.15;6.22;;;;;;;12.19;100.00;99871.84;5024182;28;20033;-54
2022/11/16 00:33:27;;;;;;;7.30;6.07;;;;;;;12.18;100.00;99870.13;5023172;28;20511;-50
2022/11/16 00:35:52;;;;;;;7.53;6.45;;;;;;;12.18;100.00;99872.72;5021906;28;20042;-56
2022/11/16 00:38:18;;;;;;;7.13;5.93;;;;;;;12.14;100.00;99858.97;5021883;28;20454;-54
2022/11/16 00:40:43;;;;;;;7.97;6.38;;;;;;;12.17;100.00;99868.41;5006222;28;20521;-57
2022/11/16 00:43:08;;;;;;;7.63;6.53;;;;;;;12.15;100.00;99855.53;5020803;28;20041;-53
2022/11/16 00:45:34;;;;;;;7.22;5.95;;;;;;;12.17;100.00;99852.94;5021715;28;20033;-57
2022/11/16 00:47:59;;;;;;;7.25;6.13;;;;;;;12.15;100.00;99850.38;5023677;28;20037;-57
2022/11/16 00:50:24;;;;;;;7.35;6.22;;;;;;;12.15;100.00;99859.81;5022255;28;20044;-56
2022/11/16 00:52:50;;;;;;;7.43;6.03;;;;;;;12.12;100.00;99855.50;5021885;28;20034;-54
2022/11/16 00:55:15;;;;;;;7.93;6.47;;;;;;;12.16;100.00;99869.28;5022723;28;20041;-57
2022/11/16 00:57:40;;;;;;;7.30;6.47;;;;;;;12.15;100.00;99852.94;5024490;28;20099;-56
2022/11/16 01:00:08;;;;;;;8.88;6.07;;;;;;;12.18;100.00;99852.09;5019700;28;20065;-48
2022/11/16 01:02:33;;;;;;;8.00;6.43;;;;;;;12.15;100.00;99855.53;5021068;28;20663;-56
2022/11/16 01:04:58;;;;;;;7.13;6.43;;;;;;;12.19;100.00;99853.81;5024062;28;20116;-51
2022/11/16 01:07:24;;;;;;;7.20;6.47;;;;;;;12.19;100.00;99840.91;5022867;28;20415;-56
2022/11/16 01:09:49;;;;;;;6.97;6.28;;;;;;;12.16;100.00;99838.34;5021853;28;20390;-56
2022/11/16 01:12:15;;;;;;;7.00;6.13;;;;;;;12.18;100.00;99840.06;5023178;28;20049;-53
2022/11/16 01:14:45;;;;;;;7.75;6.32;;;;;;;12.19;100.00;99841.78;5021597;28;20116;-57
2022/11/16 01:17:11;;;;;;;7.82;6.50;;;;;;;12.18;100.00;99844.34;5018454;28;20652;-54
2022/11/16 01:19:37;;;;;;;8.80;6.35;;;;;;;12.18;100.00;99850.38;5024982;28;20033;-57
2022/11/16 01:22:03;;;;;;;7.35;6.45;;;;;;;12.19;100.00;99843.50;5022047;28;20541;-50
2022/11/16 01:24:29;;;;;;;7.75;6.25;;;;;;;12.17;100.00;99824.59;5020338;28;20044;-57
2022/11/16 01:26:56;;;;;;;7.43;6.30;;;;;;;12.18;100.00;99808.28;5022841;28;20041;-56
2022/11/16 01:29:24;;;;;;;6.70;6.00;;;;;;;12.18;100.00;99826.31;5022441;28;21055;-54
2022/11/16 01:31:49;;;;;;;6.80;6.10;;;;;;;12.18;100.00;99831.47;5022471;28;20095;-53
2022/11/16 01:34:15;;;;;;;7.47;5.75;;;;;;;12.17;100.00;99828.03;5018948;28;20061;-55
2022/11/16 01:36:40;;;;;;;6.85;5.93;;;;;;;12.18;100.00;99828.91;5022196;28;20111;-57
2022/11/16 01:39:06;;;;;;;6.63;5.25;;;;;;;12.18;100.00;99823.75;5021204;28;20037;-54
2022/11/16 01:41:32;;;;;;;8.40;6.45;;;;;;;12.16;100.00;99810.84;5020595;28;20037;-53
2022/11/16 01:44:06;;;;;;;7.25;5.88;;;;;;;12.19;100.00;99815.16;5020051;28;20527;-53
2022/11/16 01:46:31;;;;;;;7.03;5.45;;;;;;;12.17;100.00;99814.28;5023471;28;20041;-55
2022/11/16 01:49:11;;;;;;;7.78;6.43;;;;;;;12.21;100.00;99814.31;5022683;28;20397;-57
2022/11/16 01:51:39;;;;;;;6.88;6.18;;;;;;;12.19;100.00;99810.84;5021494;28;20053;-50
2022/11/16 01:54:08;;;;;;;6.95;6.03;;;;;;;12.21;100.00;99816.03;5020337;28;20025;-53
2022/11/16 01:56:36;;;;;;;6.70;6.00;;;;;;;12.19;100.00;99805.69;5020894;28;20461;-56
2022/11/16 01:59:03;;;;;;;12.60;6.40;;;;;;;12.19;100.00;99810.84;5022274;28;20444;-54
2022/11/16 02:01:28;;;;;;;9.38;6.40;;;;;;;12.19;100.00;99813.44;5020890;28;20064;-57
2022/11/16 02:03:53;;;;;;;7.18;6.13;;;;;;;12.19;100.00;99810.84;5018788;28;20033;-55
2022/11/16 02:06:25;;;;;;;6.95;6.25;;;;;;;12.22;100.00;99810.03;5018047;28;20083;-49
2022/11/16 02:12:29;;;;;;;9.23;6.60;;;;;;;12.23;100.00;99804.88;4959661;28;20052;-58
2022/11/16 02:15:07;;;;;;;8.40;6.53;;;;;;;12.22;100.00;99802.28;5019538;28;20032;-53
2022/11/16 02:17:56;;;;;;;7.32;6.40;;;;;;;12.27;100.00;99816.06;5021098;28;20045;-56
2022/11/16 02:20:36;;;;;;;8.15;7.15;;;;;;;12.20;100.00;99810.03;5022224;28;20040;-53
2022/11/16 02:23:04;;;;;;;9.20;6.70;;;;;;;12.21;100.00;99806.59;5020651;28;20029;-53
2022/11/16 02:25:49;;;;;;;8.30;6.88;;;;;;;12.22;100.00;99812.59;5020189;28;20037;-50
2022/11/16 02:28:41;;;;;;;9.80;7.03;;;;;;;12.23;100.00;99796.28;5021624;28;20064;-57
2022/11/16 02:31:12;;;;;;;9.00;6.93;;;;;;;12.19;100.00;99797.97;5019992;28;20033;-52
2022/11/16 02:33:40;;;;;;;8.30;6.35;;;;;;;12.20;100.00;99799.72;5020762;28;20370;-53
2022/11/16 02:36:09;;;;;;;8.40;6.55;;;;;;;12.21;100.00;99806.59;5021425;28;20532;-57
2022/11/16 02:38:38;;;;;;;7.43;6.15;;;;;;;12.23;100.00;99804.88;5020949;28;20474;-55
2022/11/16 02:41:24;;;;;;;6.65;5.70;;;;;;;12.26;100.00;99807.47;5020360;28;20026;-57
2022/11/16 02:43:55;;;;;;;8.10;5.70;;;;;;;12.24;100.00;99801.44;5021224;28;20461;-56
2022/11/16 02:46:27;;;;;;;6.57;5.90;;;;;;;12.23;100.00;99804.00;5020699;28;20025;-57
2022/11/16 02:48:56;;;;;;;7.00;6.30;;;;;;;12.22;100.00;99810.88;5021409;28;20021;-53
2022/11/16 02:51:25;;;;;;;7.38;5.13;;;;;;;12.24;100.00;99814.31;5025134;28;20028;-57
2022/11/16 02:53:59;;;;;;;7.60;5.45;;;;;;;12.25;100.00;99818.63;5024304;28;20367;-55
2022/11/16 02:56:25;;;;;;;8.80;5.65;;;;;;;12.24;100.00;99810.88;5023601;28;20082;-58
2022/11/16 02:58:51;;;;;;;7.05;5.65;;;;;;;12.24;100.00;99816.91;5023515;28;20033;-53
2022/11/16 03:01:42;;;;;;;8.75;5.80;;;;;;;12.29;100.00;99810.06;5024503;28;20060;-56
2022/11/16 03:04:22;;;;;;;8.30;5.30;;;;;;;12.27;100.00;99808.34;5024904;28;20071;-54
2022/11/16 03:06:50;;;;;;;6.60;5.32;;;;;;;12.23;100.00;99801.44;5022750;28;20045;-56
2022/11/16 03:09:20;;;;;;;6.97;5.10;;;;;;;12.25;100.00;99807.44;5024308;28;20716;-54
2022/11/16 03:12:01;;;;;;;6.68;4.90;;;;;;;12.23;100.00;99810.03;5026084;28;20347;-56
2022/11/16 03:14:35;;;;;;;5.35;4.85;;;;;;;12.23;100.00;99810.03;5005096;28;20338;-56
2022/11/16 03:17:05;;;;;;;6.00;4.18;;;;;;;12.20;100.00;99809.16;5006259;28;20080;-57
2022/11/16 03:19:45;;;;;;;5.18;4.47;;;;;;;12.24;100.00;99821.19;5004853;28;20033;-53
2022/11/16 03:22:21;;;;;;;4.75;3.90;;;;;;;12.21;100.00;99816.91;5002331;28;20041;-57
2022/11/16 03:24:46;;;;;;;5.38;4.07;;;;;;;12.19;100.00;99812.56;5005290;28;20390;-57
2022/11/16 03:27:36;;;;;;;5.53;4.20;;;;;;;12.23;100.00;99811.75;5003676;28;20034;-53
2022/11/16 03:30:04;;;;;;;;;;;;;;;12.33;100.00;99816.09;5005333;28;20048;-53
2022/11/16 03:32:44;;;;;;;4.57;3.50;;;;;;;12.24;100.00;99811.75;5005357;28;19924;-56
2022/11/16 03:35:16;;;;;;;5.82;3.55;;;;;;;12.21;100.00;99808.31;5005074;28;20042;-58
2022/11/16 03:37:43;;;;;;;5.35;3.75;;;;;;;12.19;100.00;99825.47;5006784;28;20083;-52
2022/11/16 03:40:10;;;;;;;5.03;3.17;;;;;;;12.17;100.00;99820.31;5005224;28;20486;-57
2022/11/16 03:42:37;;;;;;;3.83;3.15;;;;;;;12.18;100.00;99821.16;5004568;28;20544;-56
2022/11/16 03:45:03;;;;;;;5.05;3.30;;;;;;;12.14;100.00;99827.19;5004969;28;20517;-57
2022/11/16 03:47:29;;;;;;;3.67;3.10;;;;;;;12.14;100.00;99828.03;5003649;28;20080;-49
2022/11/16 03:49:54;;;;;;;3.95;3.30;;;;;;;12.09;100.00;99834.88;5006269;28;20033;-50
2022/11/16 03:52:20;;;;;;;3.58;3.17;;;;;;;12.09;100.00;99837.47;5005625;28;20440;-55
2022/11/16 03:54:45;;;;;;;4.40;2.83;;;;;;;12.10;100.00;99836.59;5005572;28;20030;-56
2022/11/16 03:57:17;;;;;;;3.20;2.63;;;;;;;12.09;100.00;99845.19;5002173;28;20065;-49
2022/11/16 03:59:42;;;;;;;6.97;3.10;;;;;;;12.05;100.00;99846.88;5006511;28;20046;-51
2022/11/16 04:02:08;;;;;;;3.58;2.70;;;;;;;12.11;100.00;99856.34;5005302;28;20112;-52
2022/11/16 04:29:12;;;;;;;2.63;1.67;;;;;;;11.84;100.00;99867.34;5024254;28;20750;-56
2022/11/16 04:39:49;;;;;;;5.93;1.27;;;;;;;11.76;100.00;99869.81;5024172;28;20096;-53
2022/11/16 04:42:18;;;;;;;3.13;1.27;;;;;;;11.77;99.92;99876.72;5020795;28;20061;-56
2022/11/16 04:47:28;;;;;;;6.28;1.60;;;;;;;11.74;99.51;99874.09;5021575;28;20068;-57
2022/11/16 04:49:54;;;;;;;4.50;1.65;;;;;;;11.73;99.02;99872.38;5024939;28;20037;-54
2022/11/16 04:52:19;;;;;;;6.15;1.67;;;;;;;11.72;99.16;99877.53;5021023;28;20034;-46
2022/11/16 04:54:44;;;;;;;4.80;1.55;;;;;;;11.69;99.04;99890.38;5024699;28;20033;-54
2022/11/16 04:57:10;;;;;;;5.05;1.40;;;;;;;11.70;98.90;99889.53;5021508;28;20056;-56
2022/11/16 04:59:35;;;;;;;3.58;1.42;;;;;;;11.71;98.81;99886.09;5023056;28;20040;-54
2022/11/16 05:02:06;;;;;;;3.80;1.60;;;;;;;11.72;98.87;99895.56;5022218;28;20084;-57
2022/11/16 05:04:32;;;;;;;6.03;1.70;;;;;;;11.69;98.40;99895.53;5022512;28;20033;-54
2022/11/16 05:06:58;;;;;;;4.55;1.40;;;;;;;11.64;98.53;99900.63;5022123;28;20390;-56
2022/11/16 05:09:23;;;;;;;3.38;1.38;;;;;;;11.69;98.30;99908.41;5023139;28;20033;-60
2022/11/16 05:11:49;;;;;;;3.35;1.20;;;;;;;11.65;98.20;99904.97;5023677;28;20402;-57
2022/11/16 05:14:14;;;;;;;2.67;1.60;;;;;;;11.62;97.91;99909.19;5023023;28;20053;-57
2022/11/16 05:16:39;;;;;;;4.00;1.67;;;;;;;11.61;97.68;99910.91;5021896;28;20041;-57
2022/11/16 05:21:49;;;;;;;5.97;1.52;;;;;;;11.56;97.15;99904.88;5021830;28;20136;-51
2022/11/16 05:24:32;;;;;;;7.28;2.47;;;;;;;11.55;97.35;99910.88;5022805;28;20112;-50
2022/11/16 05:27:02;;;;;;;6.18;2.00;;;;;;;11.54;96.85;99906.56;5023473;28;20033;-55
2022/11/16 05:29:27;;;;;;;5.75;1.70;;;;;;;11.51;96.50;99915.09;5021111;28;20034;-53
2022/11/16 05:31:53;;;;;;;6.18;1.40;;;;;;;11.51;96.73;99909.09;5022151;28;20100;-56
2022/11/16 05:34:18;;;;;;;3.72;1.70;;;;;;;11.52;96.37;99914.25;5022534;28;20042;-59
2022/11/16 05:36:43;;;;;;;6.97;1.45;;;;;;;11.51;96.10;99912.53;5022285;28;20026;-58
2022/11/16 05:39:10;;;;;;;6.15;1.60;;;;;;;11.50;95.94;99912.53;5020967;28;20041;-56
2022/11/16 05:41:36;;;;;;;5.13;1.38;;;;;;;11.49;95.41;99908.25;5024643;28;20021;-53
2022/11/16 05:44:01;;;;;;;4.60;1.63;;;;;;;11.47;95.52;99904.78;5021616;28;20069;-57
2022/11/16 05:46:26;;;;;;;3.97;1.55;;;;;;;11.43;95.25;99897.88;5021102;28;20033;-57
2022/11/16 05:48:52;;;;;;;4.03;1.42;;;;;;;11.47;95.26;99908.22;5021562;28;20489;-57
2022/11/16 05:51:17;;;;;;;4.00;1.48;;;;;;;11.42;95.03;99903.88;5020872;28;20041;-58
2022/11/16 05:53:43;;;;;;;5.43;1.70;;;;;;;11.35;94.71;99896.97;5003076;28;20026;-55
2022/11/16 05:56:09;;;;;;;4.95;1.55;;;;;;;11.32;94.58;99897.78;5019344;28;20041;-50
2022/11/16 05:58:35;;;;;;;4.88;2.03;;;;;;;11.28;94.40;99896.91;5019105;28;20021;-56
2022/11/16 06:01:00;;;;;;;6.60;2.25;;;;;;;11.26;94.58;99906.28;5022618;28;20044;-54
2022/11/16 06:03:30;;;;;;;4.03;1.58;;;;;;;11.26;94.72;99908.00;5019201;28;20037;-57
2022/11/16 06:05:55;;;;;;;;;;;;;;;11.45;94.74;99909.91;5021367;28;20512;-52
2022/11/16 06:08:21;;;;;;;7.70;2.00;;;;;;;11.25;93.87;99914.88;5020731;28;19929;-55
2022/11/16 06:10:46;;;;;;;5.90;1.90;;;;;;;11.23;93.98;99916.56;5021460;28;20065;-56
2022/11/16 06:13:11;;;;;;;3.40;1.60;;;;;;;11.19;93.85;99925.09;5022611;28;20049;-57
2022/11/16 06:15:37;;;;;;;6.07;1.70;;;;;;;11.17;93.95;99931.09;5016241;28;20130;-53
2022/11/16 06:18:03;;;;;;;6.35;1.70;;;;;;;11.11;93.84;99928.44;5020832;28;20031;-58
2022/11/16 06:20:28;;;;;;;6.38;1.83;;;;;;;11.12;93.99;99930.16;5021818;28;20055;-55
2022/11/16 06:22:53;;;;;;;6.13;2.10;;;;;;;11.08;93.93;99934.41;5021940;28;20038;-56
2022/11/16 06:25:19;;;;;;;4.32;1.98;;;;;;;11.06;94.34;99932.69;5016047;28;20041;-57
2022/11/16 06:27:44;;;;;;;6.45;1.67;;;;;;;11.03;94.37;99936.06;5022675;28;20040;-56
2022/11/16 06:30:09;;;;;;;7.40;2.00;;;;;;;10.97;94.69;99941.13;5017316;28;20137;-53
2022/11/16 06:32:35;;;;;;;6.15;2.20;;;;;;;10.96;94.36;99941.97;5010753;28;20026;-57
2022/11/16 06:35:00;;;;;;;8.60;2.30;;;;;;;10.95;94.64;99951.41;5018869;28;20034;-57
2022/11/16 06:37:25;;;;;;;7.10;2.22;;;;;;;10.97;94.31;99949.72;5022636;28;20138;-58
2022/11/16 06:39:51;;;;;;;8.32;2.17;;;;;;;10.94;94.40;99957.41;5006661;28;20040;-57
2022/11/16 06:42:16;;;;;;;9.43;2.53;;;;;;;10.92;94.60;99960.78;5017754;28;20080;-57
2022/11/16 06:44:42;;;;;;;8.13;2.50;;;;;;;10.90;94.48;99965.06;5024663;28;20429;-58
2022/11/16 06:47:07;;;;;;;6.15;2.90;;;;;;;10.90;94.21;99962.50;5009380;28;20088;-57
2022/11/16 06:49:33;;;;;;;6.15;2.47;;;;;;;10.86;94.15;99964.19;5018792;28;20029;-56
2022/11/16 06:51:58;;;;;;;8.43;3.00;;;;;;;10.87;94.21;99971.03;5017496;28;20057;-57
2022/11/16 06:54:24;;;;;;;4.97;2.50;;;;;;;10.86;93.92;99974.47;5023657;28;20932;-57
2022/11/16 06:56:49;;;;;;;7.03;2.50;;;;;;;10.84;94.10;99973.56;5024165;28;20446;-56
2022/11/16 06:59:14;;;;;;;6.82;2.50;;;;;;;10.81;94.06;99977.81;5025776;28;20037;-57
2022/11/16 07:01:41;;;;;;;6.53;2.80;;;;;;;10.84;93.94;99976.13;5023442;28;20018;-58
2022/11/16 07:04:10;;;;;;;24.77;4.35;;;;;;;10.85;93.97;99983.00;5023124;28;20040;-53
2022/11/16 07:06:36;;;;;;;8.73;3.08;;;;;;;10.84;93.96;99977.84;5021376;28;20317;-56
2022/11/16 07:09:04;;;;;;;5.70;2.90;;;;;;;10.82;94.20;99982.13;5020291;28;20472;-54
2022/11/16 07:11:30;;;;;;;11.50;2.90;;;;;;;10.79;93.86;99979.50;5023179;28;20072;-53
2022/11/16 07:13:55;;;;;;;5.15;2.55;;;;;;;10.78;93.84;99980.34;5010902;28;20069;-53
2022/11/16 07:16:21;;;;;;;7.55;2.70;;;;;;;10.76;93.90;99977.75;5022007;28;20512;-58
2022/11/16 07:18:46;;;;;;;8.27;3.45;;;;;;;10.73;93.75;99978.56;5027539;28;20041;-58
2022/11/16 07:21:14;;;;;;;6.82;2.80;;;;;;;10.73;94.05;99982.84;5026115;28;20104;-56
2022/11/16 07:23:40;;;;;;;7.47;2.90;;;;;;;10.69;94.09;99987.09;5020386;28;20037;-56
2022/11/16 07:26:07;;;;;;;7.47;2.92;;;;;;;10.70;94.07;99988.81;5024019;28;20036;-57
2022/11/16 07:28:33;;;;;;;8.27;2.75;;;;;;;10.64;94.07;99986.16;5025218;28;20505;-57
2022/11/16 07:31:06;;;;;;;8.45;2.97;;;;;;;10.71;94.20;99992.25;5025007;28;20033;-57
2022/11/16 07:33:32;;;;;;;11.70;2.83;;;;;;;10.67;94.02;100009.31;5024654;28;20037;-50
2022/11/16 07:36:06;;;;;;;8.55;2.55;;;;;;;10.68;94.58;100010.22;5023328;28;20037;-57
2022/11/16 07:38:31;;;;;;;6.90;2.40;;;;;;;10.62;94.11;100013.56;5025943;28;20440;-56
2022/11/16 07:41:06;;;;;;;6.85;2.42;;;;;;;10.67;94.38;100017.03;5025273;28;20038;-55
2022/11/16 07:43:35;;;;;;;7.72;2.70;;;;;;;10.62;94.14;100015.28;5021995;28;20033;-57
2022/11/16 07:46:12;;;;;;;11.75;2.80;;;;;;;10.71;94.31;100018.81;5023414;28;20352;-60
2022/11/16 07:48:38;;;;;;;7.47;3.10;;;;;;;10.62;93.98;100025.56;5025956;28;20107;-61
2022/11/16 07:51:09;;;;;;;9.43;2.53;;;;;;;10.64;94.13;100018.72;5019485;28;20391;-55
2022/11/16 07:53:36;;;;;;;9.05;2.80;;;;;;;10.60;94.29;100020.38;5021830;28;20040;-58
2022/11/16 07:56:02;;;;;;;8.07;3.03;;;;;;;10.63;94.08;100023.00;5026748;28;20029;-57
2022/11/16 07:58:29;;;;;;;10.45;3.15;;;;;;;10.61;94.03;100023.81;5019026;28;20037;-57
2022/11/16 08:01:05;;;;;;;9.00;3.78;;;;;;;10.62;94.33;100021.28;5020915;28;20057;-57
2022/11/16 08:03:31;;;;;;;8.48;3.45;;;;;;;10.58;94.47;100023.78;5025873;28;20466;-55
2022/11/16 08:06:01;;;;;;;11.60;3.80;;;;;;;10.59;94.54;100023.78;5024691;28;20519;-57
2022/11/16 08:08:27;;;;;;;9.68;4.20;;;;;;;10.62;94.20;100023.00;5022011;28;20052;-56
2022/11/16 08:11:01;;;;;;;10.32;4.10;;;;;;;10.63;94.64;100032.44;5022404;28;20095;-47
2022/11/16 08:13:27;;;;;;;11.32;4.10;;;;;;;10.62;94.26;100026.44;5024307;28;20506;-57
2022/11/16 08:15:52;;;;;;;11.38;4.47;;;;;;;10.60;94.16;100035.81;5025380;28;20037;-63
2022/11/16 08:18:18;;;;;;;11.43;4.55;;;;;;;10.62;94.10;100034.13;5023216;28;20064;-57
2022/11/16 08:20:44;;;;;;;14.50;3.95;;;;;;;10.64;94.31;100035.00;5022260;28;20025;-57
2022/11/16 08:23:09;;;;;;;11.60;4.22;;;;;;;10.65;94.29;100030.72;5023187;28;20116;-58
2022/11/16 08:25:35;;;;;;;13.15;3.88;;;;;;;10.64;94.10;100035.00;5027117;28;20068;-60
2022/11/16 08:28:00;;;;;;;11.95;3.80;;;;;;;10.68;94.75;100034.22;5022953;28;20065;-58
2022/11/16 08:30:25;;;;;;;12.75;3.70;;;;;;;10.67;94.25;100040.19;5020878;28;20029;-57
2022/11/16 08:32:51;;;;;;;13.65;3.88;;;;;;;10.70;94.24;100032.53;5023880;28;20049;-55
2022/11/16 08:35:16;;;;;;;10.25;3.90;;;;;;;10.71;93.91;100041.09;5021218;28;20033;-58
2022/11/16 08:37:41;;;;;;;10.15;3.70;;;;;;;10.72;94.31;100038.53;5024108;28;20030;-58
2022/11/16 08:40:07;;;;;;;12.98;3.30;;;;;;;10.71;93.88;100039.41;5022110;28;20038;-53
2022/11/16 08:42:33;;;;;;;12.50;3.28;;;;;;;10.72;93.33;100033.41;5023944;28;20033;-57
2022/11/16 08:44:58;;;;;;;13.05;3.90;;;;;;;10.74;92.90;100039.47;5018877;28;20116;-57
2022/11/16 08:47:23;;;;;;;10.60;2.60;;;;;;;10.78;93.05;100037.78;5012895;28;20532;-58
2022/11/16 08:49:49;;;;;;;9.80;2.75;;;;;;;10.87;92.64;100037.91;5023977;28;20367;-58
2022/11/16 08:52:14;;;;;;;11.02;2.80;;;;;;;10.99;93.03;100040.66;5023853;28;20037;-58
2022/11/16 08:54:40;;;;;;;13.82;2.67;;;;;;;11.10;92.39;100051.09;5024761;28;20029;-57
2022/11/16 08:57:05;;;;;;;17.05;2.40;;;;;;;11.21;92.05;100051.19;5025090;28;20025;-57
2022/11/16 08:59:31;;;;;;;10.65;3.15;;;;;;;11.35;90.96;100048.81;5015451;28;20029;-57
2022/11/16 09:01:56;;;;;;;13.23;2.50;;;;;;;11.48;90.96;100053.25;5023206;28;20041;-58
2022/11/16 09:04:23;;;;;;;11.98;2.60;;;;;;;11.61;90.21;100059.41;5020421;28;20034;-58
2022/11/16 09:06:51;;;;;;;9.45;2.50;;;;;;;11.65;89.44;100056.88;5021053;28;20433;-50
2022/11/16 09:09:16;;;;;;;7.78;2.28;;;;;;;11.76;89.52;100059.56;5023631;28;20438;-57
2022/11/16 09:11:42;;;;;;;9.07;2.45;;;;;;;11.81;89.02;100060.50;5023479;28;20025;-58
2022/11/16 09:14:07;;;;;;;11.90;2.25;;;;;;;11.82;88.44;100055.34;5019422;28;20061;-51
2022/11/16 09:16:33;;;;;;;13.10;2.25;;;;;;;11.88;88.22;100061.41;5025121;28;20441;-57
2022/11/16 09:18:59;;;;;;;15.18;2.00;;;;;;;11.88;87.56;100064.84;5021421;28;20045;-56
2022/11/16 09:21:27;;;;;;;13.82;2.58;;;;;;;11.89;87.32;100068.28;5018258;28;20064;-49
2022/11/16 09:23:53;;;;;;;12.70;2.60;;;;;;;11.91;87.61;100067.47;5025804;28;20456;-58
2022/11/16 09:26:21;;;;;;;9.75;1.92;;;;;;;11.92;87.05;100058.03;5022431;28;20038;-57
2022/11/16 09:28:54;;;;;;;12.20;2.50;;;;;;;11.99;86.90;100058.09;5017910;28;20029;-57
2022/11/16 09:31:21;;;;;;;8.73;2.50;;;;;;;11.94;88.01;100061.47;5015067;28;20441;-57
2022/11/16 09:33:46;;;;;;;12.82;2.17;;;;;;;11.95;87.37;100065.78;5020620;28;20025;-58
2022/11/16 09:36:14;;;;;;;11.98;2.30;;;;;;;11.99;87.47;100054.66;5023979;28;20463;-55
2022/11/16 09:38:42;;;;;;;10.48;1.70;;;;;;;11.97;86.55;100062.38;5025380;28;20037;-56
2022/11/16 09:41:25;;;;;;;7.85;1.73;;;;;;;12.01;86.94;100053.84;5023939;28;20544;-57
2022/11/16 09:44:23;;;;;;;8.93;2.00;;;;;;;12.04;86.39;100060.72;5019822;28;20025;-58
2022/11/16 09:46:55;;;;;;;11.25;2.08;;;;;;;12.10;85.91;100053.06;4987337;28;20505;-57
2022/11/16 09:49:24;;;;;;;11.52;1.95;;;;;;;12.12;85.92;100061.66;5025830;28;20025;-57
2022/11/16 09:51:54;;;;;;;7.82;2.20;;;;;;;12.15;86.26;100058.25;5024404;28;20029;-50
2022/11/16 09:54:23;;;;;;;11.80;1.80;;;;;;;12.18;86.65;100064.28;5019978;28;20033;-58
2022/11/16 09:56:53;;;;;;;11.07;1.90;;;;;;;12.21;86.03;100069.47;5024587;28;20028;-57
2022/11/16 09:59:21;;;;;;;7.40;1.80;;;;;;;12.22;87.18;100070.34;5021996;28;20104;-54
2022/11/16 10:01:53;;;;;;;10.50;2.28;;;;;;;12.28;86.46;100063.53;5022516;28;20095;-56
2022/11/16 10:04:40;;;;;;;9.23;1.65;;;;;;;12.37;85.11;100062.72;5022168;28;20109;-57
2022/11/16 10:07:10;;;;;;;10.75;1.80;;;;;;;12.35;85.17;100067.00;5022054;28;20462;-58
2022/11/16 10:09:36;;;;;;;9.82;1.90;;;;;;;12.40;85.10;100069.63;5022009;28;20112;-58
2022/11/16 10:12:13;;;;;;;6.70;1.80;;;;;;;12.40;83.44;100077.38;5021374;28;20428;-54
2022/11/16 10:15:00;;;;;;;9.18;1.65;;;;;;;12.43;84.73;100074.78;5022594;28;20092;-56
2022/11/16 10:17:44;;;;;;;8.77;1.50;;;;;;;12.49;84.77;100067.09;5017287;28;20494;-58
2022/11/16 10:20:10;;;;;;;8.75;1.67;;;;;;;12.47;84.05;100067.09;5025322;28;20037;-55
2022/11/16 10:22:59;;;;;;;8.38;1.77;;;;;;;12.55;84.51;100059.41;5019846;28;20032;-57
2022/11/16 10:25:43;;;;;;;9.13;1.48;;;;;;;12.57;83.30;100057.72;5020932;28;20108;-58
2022/11/16 10:28:33;;;;;;;7.90;1.80;;;;;;;12.60;83.58;100065.47;5020701;28;20069;-49
2022/11/16 10:31:10;;;;;;;8.40;1.73;;;;;;;12.66;83.19;100057.78;5023621;28;20033;-55
2022/11/16 10:33:39;;;;;;;9.85;2.25;;;;;;;12.68;82.97;100060.38;5017548;28;20078;-51
2022/11/16 10:36:11;;;;;;;9.18;1.63;;;;;;;12.72;82.86;100057.81;5021047;28;20353;-55
2022/11/16 10:38:38;;;;;;;11.38;1.83;;;;;;;12.70;80.61;100056.09;5026140;28;20159;-56
2022/11/16 10:41:16;;;;;;;6.93;1.70;;;;;;;12.78;81.87;100060.44;5023030;28;20045;-55
2022/11/16 10:43:43;;;;;;;14.90;2.05;;;;;;;12.76;80.44;100056.13;5018719;28;20049;-53
2022/11/16 10:46:32;;;;;;;13.35;1.65;;;;;;;12.82;81.91;100059.63;5023984;28;20382;-53
2022/11/16 10:49:06;;;;;;;8.90;1.42;;;;;;;12.86;81.47;100055.31;5010390;28;20615;-55
2022/11/16 10:51:31;;;;;;;5.95;1.50;;;;;;;12.87;81.49;100047.63;5022099;28;20053;-58
2022/11/16 10:53:57;;;;;;;9.00;1.70;;;;;;;12.92;82.12;100057.06;5022867;28;20022;-52
2022/11/16 10:56:39;;;;;;;6.65;1.48;;;;;;;12.97;82.54;100051.09;5019564;28;20037;-51
2022/11/16 10:59:07;;;;;;;9.00;1.63;;;;;;;12.95;80.94;100051.94;5018636;28;20044;-56
2022/11/16 11:01:32;;;;;;;6.25;1.60;;;;;;;13.02;80.42;100057.13;5025140;28;20029;-56
2022/11/16 11:04:16;;;;;;;8.75;1.83;;;;;;;13.08;80.88;100057.16;5016414;28;20080;-49
2022/11/16 11:06:42;;;;;;;8.75;2.08;;;;;;;13.06;81.33;100055.44;5020657;28;20466;-54
2022/11/16 11:09:34;;;;;;;7.93;1.70;;;;;;;13.11;79.62;100054.63;5023731;28;20466;-55
2022/11/16 11:15:02;;;;;;;9.02;1.67;;;;;;;13.06;78.36;100051.16;5020612;28;20052;-56
2022/11/16 11:17:29;;;;;;;8.70;1.60;;;;;;;13.03;77.74;100050.25;5022169;28;20057;-55
2022/11/16 11:20:25;;;;;;;7.93;1.20;;;;;;;13.08;78.13;100043.41;5024439;28;20076;-55
2022/11/16 11:23:03;;;;;;;7.50;1.23;;;;;;;13.09;78.34;100051.16;5012013;28;20046;-55
2022/11/16 11:25:33;;;;;;;9.48;1.77;;;;;;;13.09;77.16;100042.53;5023931;28;20037;-53
2022/11/16 11:28:18;;;;;;;7.95;1.48;;;;;;;13.12;76.08;100047.75;5024372;28;20037;-55
2022/11/16 11:31:08;;;;;;;11.63;1.60;;;;;;;13.20;77.37;100042.59;5023162;28;20044;-55
2022/11/16 11:33:38;;;;;;;6.15;1.40;;;;;;;13.23;74.77;100047.81;5026405;28;20496;-57
2022/11/16 11:36:19;;;;;;;12.00;1.95;;;;;;;13.32;76.15;100045.25;5023632;28;20029;-54
2022/11/16 11:39:04;;;;;;;6.30;1.55;;;;;;;13.28;75.06;100028.88;5023143;28;20025;-55
2022/11/16 11:41:41;;;;;;;6.00;1.20;;;;;;;13.21;75.04;100023.69;5029603;28;20021;-56
2022/11/16 11:44:18;;;;;;;5.75;1.40;;;;;;;13.12;75.96;100030.53;5029056;28;20036;-52
2022/11/16 11:47:25;;;;;;;6.65;1.20;;;;;;;13.14;75.88;100030.53;5025421;28;20112;-55
2022/11/16 11:50:00;;;;;;;6.90;1.40;;;;;;;13.06;75.35;100030.50;4994066;28;20512;-53
2022/11/16 11:52:35;;;;;;;6.40;1.30;;;;;;;13.02;75.61;100031.34;5026318;28;20510;-55
2022/11/16 11:55:04;;;;;;;7.72;1.33;;;;;;;12.93;75.21;100030.44;5019619;28;20021;-55
2022/11/16 11:57:38;;;;;;;13.45;1.83;;;;;;;12.92;75.40;100024.38;5021319;28;20034;-53
2022/11/16 12:00:05;;;;;;;7.00;1.10;;;;;;;12.87;75.78;100023.53;5023867;28;20478;-54
2022/11/16 12:02:42;;;;;;;8.95;1.40;;;;;;;12.88;75.95;100017.50;5024187;28;20842;-55
2022/11/16 12:05:42;;;;;;;10.45;1.30;;;;;;;12.86;76.42;100017.50;5022914;28;20470;-53
2022/11/16 12:08:33;;;;;;;4.05;1.10;;;;;;;12.86;76.57;100020.09;5026378;28;20459;-52
2022/11/16 12:11:23;;;;;;;7.60;1.50;;;;;;;12.95;76.17;100003.78;5022374;28;20144;-55
2022/11/16 12:14:09;;;;;;;7.90;1.50;;;;;;;13.03;76.38;100011.53;5024121;28;20025;-54
2022/11/16 12:16:41;;;;;;;7.85;1.40;;;;;;;13.06;76.76;100009.00;5015995;28;20053;-55
2022/11/16 12:19:32;;;;;;;10.35;1.50;;;;;;;13.12;77.11;99996.97;5024478;28;20545;-55
2022/11/16 12:22:19;;;;;;;6.45;2.00;;;;;;;13.12;75.59;99994.38;5023079;28;20034;-55
2022/11/16 12:24:47;;;;;;;8.63;1.75;;;;;;;13.11;75.15;99995.25;5026070;28;20040;-55